WetterOnline ( https://www.wetteronline.ch )

Wetter aktuell Bielefeld

Aktuelles Wetter: Bad Salzuflen (139m)

6-stündlich | Neueste Meldungen
Ortszeit Temperatur Wetter
Mo, 17.02. 13:00 9.7° C leicht bewölkt
Mo, 17.02. 7:00 7.3° C wolkig
Mo, 17.02. 1:00 7.2° C leichter Regen
So, 16.02. 19:00 17.2° C bedeckt
So, 16.02. 13:00 14.9° C bedeckt
So, 16.02. 7:00 12.4° C leichter Regen
So, 16.02. 1:00 10.9° C bedeckt
Sa, 15.02. 19:00 9.0° C wolkig
Ortszeit Temperatur Wetter
Mo, 17.02. 17:00 7.7° C leichter Regen
Mo, 17.02. 16:50 7.7° C leichter Regen
Mo, 17.02. 16:40 9.5° C leichter Regen
Mo, 17.02. 16:30 9.8° C wolkig
Mo, 17.02. 16:20 9.8° C wolkig
Mo, 17.02. 16:10 9.8° C leicht bewölkt
Mo, 17.02. 16:00 10.2° C bedeckt
Mo, 17.02. 15:30 9.7° C bedeckt
Mo, 17.02. 15:00 9.8° C bewölkt
Mo, 17.02. 14:30 9.8° C wolkig
Mo, 17.02. 14:00 10.1° C wolkig
Ortszeit Relative Feuchte Sichtweite
Mo, 17.02. 13:00 59% 35 km
Mo, 17.02. 7:00 63% 40 km
Mo, 17.02. 1:00 86% 35 km
So, 16.02. 19:00 47% 65 km
So, 16.02. 13:00 58% 55 km
So, 16.02. 7:00 69% 18 km
So, 16.02. 1:00 59% 65 km
Sa, 15.02. 19:00 70% 35 km
Ortszeit Relative Feuchte Sichtweite
Mo, 17.02. 17:00 72% 8 km
Mo, 17.02. 16:50 72% -
Mo, 17.02. 16:40 55% -
Mo, 17.02. 16:30 52% 50 km
Mo, 17.02. 16:20 52% -
Mo, 17.02. 16:10 51% -
Mo, 17.02. 16:00 50% 40 km
Mo, 17.02. 15:30 51% 45 km
Mo, 17.02. 15:00 52% 50 km
Mo, 17.02. 14:30 54% 45 km
Mo, 17.02. 14:00 56% 35 km
Ortszeit Niederschlagsmenge Niederschlagsart
Mo, 17.02. 13:00 0.0 l/m2 in 6 Std. -
Mo, 17.02. 7:00 6 l/m2 in 12 Std. Regen
Mo, 17.02. 1:00 6 l/m2 in 6 Std. Regen
So, 16.02. 19:00 2 l/m2 in 12 Std. Regen
So, 16.02. 13:00 2 l/m2 in 6 Std. Regen
So, 16.02. 7:00 0.1 l/m2 in 12 Std. Regen
So, 16.02. 1:00 0.0 l/m2 in 6 Std. -
Sa, 15.02. 19:00 0.0 l/m2 in 12 Std. -
Ortszeit Niederschlagsmenge Niederschlagsart
Mo, 17.02. 17:00 0.1 l/m2 in 1 Std. Regen
Mo, 17.02. 16:50 keine Meldung -
Mo, 17.02. 16:40 keine Meldung -
Mo, 17.02. 16:30 0.0 l/m2 in 1 Std. -
Mo, 17.02. 16:20 keine Meldung -
Mo, 17.02. 16:10 keine Meldung -
Mo, 17.02. 16:00 0.0 l/m2 in 1 Std. -
Mo, 17.02. 15:30 0.0 l/m2 in 1 Std. -
Mo, 17.02. 15:00 0.0 l/m2 in 1 Std. -
Mo, 17.02. 14:30 0.0 l/m2 in 1 Std. -
Mo, 17.02. 14:00 0.0 l/m2 in 1 Std. -
Ortszeit Stärke Spitze Richtung
km/h Bft. km/h Grad Sektor
Mo, 17.02. 13:00 24 4 48 - -
Mo, 17.02. 7:00 22 4 58 - -
Mo, 17.02. 1:00 28 4 85 - -
So, 16.02. 19:00 40 6 72 - -
So, 16.02. 13:00 33 5 69 - -
So, 16.02. 7:00 30 5 57 - -
So, 16.02. 1:00 28 4 50 - -
Sa, 15.02. 19:00 13 3 39 - -
Ortszeit Stärke Spitze Richtung
km/h Bft. km/h Grad Sektor
Mo, 17.02. 17:00 32 5 61 - -
Mo, 17.02. 16:50 32 5 - - -
Mo, 17.02. 16:40 25 4 - - -
Mo, 17.02. 16:30 25 4 50 - -
Mo, 17.02. 16:20 25 4 - - -
Mo, 17.02. 16:10 22 4 - - -
Mo, 17.02. 16:00 26 4 52 - -
Mo, 17.02. 15:30 25 4 54 - -
Mo, 17.02. 15:00 25 4 54 - -
Mo, 17.02. 14:30 29 5 54 - -
Mo, 17.02. 14:00 26 4 50 - -
Ortszeit Untergrenze Bedeckung Gattung
total tief tief mittel hoch
Mo, 17.02. 13:00 1050 m 3/8 3/8 - - -
Mo, 17.02. 7:00 1080 m 8/8 2/8 - - -
Mo, 17.02. 1:00 570 m 8/8 8/8 - - -
So, 16.02. 19:00 1500 m 8/8 8/8 - - -
So, 16.02. 13:00 1290 m 8/8 8/8 - - -
So, 16.02. 7:00 990 m 8/8 8/8 - - -
So, 16.02. 1:00 3300 m 8/8 8/8 - - -
Sa, 15.02. 19:00 7200 m 8/8 0/8 - - -
Ortszeit Bedeckungsgrad in Achtel und Wolkenuntergrenze
Mo, 17.02. 17:00 2(780m) 7(1380m) 8(1500m)
Mo, 17.02. 16:50 2(780m) 7(1380m) 8(1500m)
Mo, 17.02. 16:40 1(930m) 7(1380m) 7(1500m)
Mo, 17.02. 16:30 3(1410m) 5(2100m)
Mo, 17.02. 16:20 3(1410m) 5(2100m)
Mo, 17.02. 16:10 1(1500m) 4(2100m)
Mo, 17.02. 16:00 4(1500m) 8(2100m)
Mo, 17.02. 15:30 7(1500m) 8(1800m) 8(2400m)
Mo, 17.02. 15:00 3(1350m) 7(1800m) 7(1800m)
Mo, 17.02. 14:30 5(1200m) 5(1500m)
Mo, 17.02. 14:00 5(1140m) 6(1380m) 6(1500m)
Ortszeit Luftdruck NN (hPa) Tendenz (hPa in 3 Std.)
Mo, 17.02. 13:00 1012 - 0,7
Mo, 17.02. 7:00 1012 + 3,0
Mo, 17.02. 1:00 1007 + 2,7
So, 16.02. 19:00 997 - 2,2
So, 16.02. 13:00 1003 - 1,6
So, 16.02. 7:00 1006 - 2,1
So, 16.02. 1:00 1009 - 2,6
Sa, 15.02. 19:00 1015 - 1,7
Ortszeit Luftdruck NN (hPa) Tendenz (hPa in 3 Std.)
Mo, 17.02. 17:00 1012 + 0,2
Mo, 17.02. 16:50 1012 keine Meldung
Mo, 17.02. 16:40 1011 keine Meldung
Mo, 17.02. 16:30 1011 - 1,1
Mo, 17.02. 16:20 1011 keine Meldung
Mo, 17.02. 16:10 1011 keine Meldung
Mo, 17.02. 16:00 1011 - 0,9
Mo, 17.02. 15:30 1011 - 1,0
Mo, 17.02. 15:00 1012 - 0,8
Mo, 17.02. 14:30 1012 - 0,9
Mo, 17.02. 14:00 1012 - 0,7
Ortszeit Schneehöhe (cm)
Mo, 17.02. 13:00 0
Mo, 17.02. 7:00 0
Mo, 17.02. 1:00 0
So, 16.02. 19:00 0
So, 16.02. 13:00 0
So, 16.02. 7:00 0
So, 16.02. 1:00 0
Sa, 15.02. 19:00 0
Ortszeit Schneehöhe (cm)
Mo, 17.02. 17:00 0
Mo, 17.02. 16:50 0
Mo, 17.02. 16:40 0
Mo, 17.02. 16:30 0
Mo, 17.02. 16:20 0
Mo, 17.02. 16:10 0
Mo, 17.02. 16:00 0
Mo, 17.02. 15:30 0
Mo, 17.02. 15:00 0
Mo, 17.02. 14:30 0
Mo, 17.02. 14:00 0
Link zu dieser Seite / Seite empfehlen

Das Wetter in ...